sensor_id;sensor_type;location;lat;lon;timestamp;P1;durP1;ratioP1;P2;durP2;ratioP2
17449;SDS011;8842;51.244;7.102;2022-10-26T00:02:24;6.70;;;6.40;;
17449;SDS011;8842;51.244;7.102;2022-10-26T00:07:41;6.53;;;6.23;;
17449;SDS011;8842;51.244;7.102;2022-10-26T00:12:47;6.50;;;6.20;;
17449;SDS011;8842;51.244;7.102;2022-10-26T00:18:02;6.50;;;6.20;;
17449;SDS011;8842;51.244;7.102;2022-10-26T00:23:06;6.50;;;6.20;;
17449;SDS011;8842;51.244;7.102;2022-10-26T00:28:18;7.40;;;7.00;;
17449;SDS011;8842;51.244;7.102;2022-10-26T00:33:24;6.80;;;6.50;;
17449;SDS011;8842;51.244;7.102;2022-10-26T00:38:46;6.80;;;6.50;;
17449;SDS011;8842;51.244;7.102;2022-10-26T00:49:11;6.90;;;6.60;;
17449;SDS011;8842;51.244;7.102;2022-10-26T00:54:19;7.07;;;6.77;;
17449;SDS011;8842;51.244;7.102;2022-10-26T00:59:35;6.90;;;6.60;;
17449;SDS011;8842;51.244;7.102;2022-10-26T01:04:41;7.07;;;6.77;;
17449;SDS011;8842;51.244;7.102;2022-10-26T01:09:48;7.00;;;6.70;;
17449;SDS011;8842;51.244;7.102;2022-10-26T01:15:04;7.30;;;7.00;;
17449;SDS011;8842;51.244;7.102;2022-10-26T01:26:22;7.10;;;6.60;;
17449;SDS011;8842;51.244;7.102;2022-10-26T01:31:41;6.80;;;6.50;;
17449;SDS011;8842;51.244;7.102;2022-10-26T01:36:50;6.90;;;6.60;;
17449;SDS011;8842;51.244;7.102;2022-10-26T01:42:03;6.80;;;6.50;;
17449;SDS011;8842;51.244;7.102;2022-10-26T01:47:11;6.57;;;6.27;;
17449;SDS011;8842;51.244;7.102;2022-10-26T01:52:26;6.83;;;6.53;;
17449;SDS011;8842;51.244;7.102;2022-10-26T01:57:32;6.80;;;6.50;;
17449;SDS011;8842;51.244;7.102;2022-10-26T02:02:59;6.60;;;6.30;;
17449;SDS011;8842;51.244;7.102;2022-10-26T02:18:34;7.30;;;6.90;;
17449;SDS011;8842;51.244;7.102;2022-10-26T02:23:43;7.30;;;7.00;;
17449;SDS011;8842;51.244;7.102;2022-10-26T02:34:05;7.70;;;7.30;;
17449;SDS011;8842;51.244;7.102;2022-10-26T02:39:18;6.83;;;6.53;;
17449;SDS011;8842;51.244;7.102;2022-10-26T02:44:24;6.90;;;6.60;;
17449;SDS011;8842;51.244;7.102;2022-10-26T02:49:38;6.90;;;6.60;;
17449;SDS011;8842;51.244;7.102;2022-10-26T02:54:47;7.00;;;6.70;;
17449;SDS011;8842;51.244;7.102;2022-10-26T03:00:00;7.00;;;6.70;;
17449;SDS011;8842;51.244;7.102;2022-10-26T03:05:06;7.90;;;7.37;;
17449;SDS011;8842;51.244;7.102;2022-10-26T03:10:19;7.40;;;7.10;;
17449;SDS011;8842;51.244;7.102;2022-10-26T03:15:24;8.60;;;8.20;;
17449;SDS011;8842;51.244;7.102;2022-10-26T03:20:42;7.70;;;7.30;;
17449;SDS011;8842;51.244;7.102;2022-10-26T03:25:46;8.10;;;7.70;;
17449;SDS011;8842;51.244;7.102;2022-10-26T03:30:58;7.90;;;7.50;;
17449;SDS011;8842;51.244;7.102;2022-10-26T03:36:03;8.17;;;7.57;;
17449;SDS011;8842;51.244;7.102;2022-10-26T03:41:15;8.77;;;8.37;;
17449;SDS011;8842;51.244;7.102;2022-10-26T03:51:31;8.80;;;8.40;;
17449;SDS011;8842;51.244;7.102;2022-10-26T03:56:36;7.30;;;7.00;;
17449;SDS011;8842;51.244;7.102;2022-10-26T04:01:48;8.50;;;8.10;;
17449;SDS011;8842;51.244;7.102;2022-10-26T04:07:01;7.90;;;7.50;;
17449;SDS011;8842;51.244;7.102;2022-10-26T04:17:17;8.60;;;8.20;;
17449;SDS011;8842;51.244;7.102;2022-10-26T04:27:33;8.50;;;8.10;;
17449;SDS011;8842;51.244;7.102;2022-10-26T04:32:38;8.40;;;8.00;;
17449;SDS011;8842;51.244;7.102;2022-10-26T04:37:50;8.10;;;7.70;;
17449;SDS011;8842;51.244;7.102;2022-10-26T04:42:56;8.80;;;8.40;;
17449;SDS011;8842;51.244;7.102;2022-10-26T04:53:13;8.97;;;8.57;;
17449;SDS011;8842;51.244;7.102;2022-10-26T04:58:18;8.20;;;7.80;;
17449;SDS011;8842;51.244;7.102;2022-10-26T05:03:24;8.53;;;8.13;;
17449;SDS011;8842;51.244;7.102;2022-10-26T05:08:28;8.53;;;8.13;;
17449;SDS011;8842;51.244;7.102;2022-10-26T05:13:40;9.10;;;8.70;;
17449;SDS011;8842;51.244;7.102;2022-10-26T05:18:47;8.40;;;8.00;;
17449;SDS011;8842;51.244;7.102;2022-10-26T05:23:59;9.70;;;9.10;;
17449;SDS011;8842;51.244;7.102;2022-10-26T05:29:11;8.70;;;8.30;;
17449;SDS011;8842;51.244;7.102;2022-10-26T05:34:16;8.70;;;8.30;;
17449;SDS011;8842;51.244;7.102;2022-10-26T05:39:28;8.50;;;8.10;;
17449;SDS011;8842;51.244;7.102;2022-10-26T05:44:33;8.80;;;8.40;;
17449;SDS011;8842;51.244;7.102;2022-10-26T05:49:44;8.87;;;8.40;;
17449;SDS011;8842;51.244;7.102;2022-10-26T05:54:49;7.97;;;7.57;;
17449;SDS011;8842;51.244;7.102;2022-10-26T06:00:02;9.50;;;8.90;;
17449;SDS011;8842;51.244;7.102;2022-10-26T06:05:13;7.93;;;7.53;;
17449;SDS011;8842;51.244;7.102;2022-10-26T06:10:26;8.20;;;7.80;;
17449;SDS011;8842;51.244;7.102;2022-10-26T06:20:45;8.70;;;8.30;;
17449;SDS011;8842;51.244;7.102;2022-10-26T06:25:53;8.80;;;8.40;;
17449;SDS011;8842;51.244;7.102;2022-10-26T06:31:05;9.00;;;8.60;;
17449;SDS011;8842;51.244;7.102;2022-10-26T06:36:14;8.60;;;8.20;;
17449;SDS011;8842;51.244;7.102;2022-10-26T06:41:30;8.60;;;8.20;;
17449;SDS011;8842;51.244;7.102;2022-10-26T06:46:37;8.27;;;7.87;;
17449;SDS011;8842;51.244;7.102;2022-10-26T06:51:51;8.10;;;7.70;;
17449;SDS011;8842;51.244;7.102;2022-10-26T06:57:04;9.00;;;7.37;;
17449;SDS011;8842;51.244;7.102;2022-10-26T07:02:11;8.40;;;8.00;;
17449;SDS011;8842;51.244;7.102;2022-10-26T07:07:16;8.30;;;7.90;;
17449;SDS011;8842;51.244;7.102;2022-10-26T07:12:22;8.10;;;7.70;;
17449;SDS011;8842;51.244;7.102;2022-10-26T07:17:41;8.30;;;7.90;;
17449;SDS011;8842;51.244;7.102;2022-10-26T07:22:50;8.07;;;7.67;;
17449;SDS011;8842;51.244;7.102;2022-10-26T07:28:02;8.57;;;8.17;;
17449;SDS011;8842;51.244;7.102;2022-10-26T07:33:08;8.53;;;8.13;;
17449;SDS011;8842;51.244;7.102;2022-10-26T07:43:27;8.93;;;8.47;;
17449;SDS011;8842;51.244;7.102;2022-10-26T07:48:31;9.67;;;8.80;;
17449;SDS011;8842;51.244;7.102;2022-10-26T07:53:35;9.20;;;8.70;;
17449;SDS011;8842;51.244;7.102;2022-10-26T07:58:47;8.50;;;8.10;;
17449;SDS011;8842;51.244;7.102;2022-10-26T08:03:54;8.47;;;8.07;;
17449;SDS011;8842;51.244;7.102;2022-10-26T08:08:58;8.03;;;7.63;;
17449;SDS011;8842;51.244;7.102;2022-10-26T08:14:03;8.40;;;8.00;;
17449;SDS011;8842;51.244;7.102;2022-10-26T08:19:17;8.23;;;7.83;;
17449;SDS011;8842;51.244;7.102;2022-10-26T08:24:40;8.63;;;8.23;;
17449;SDS011;8842;51.244;7.102;2022-10-26T08:29:51;8.87;;;8.37;;
17449;SDS011;8842;51.244;7.102;2022-10-26T08:34:56;9.00;;;8.60;;
17449;SDS011;8842;51.244;7.102;2022-10-26T08:40:09;8.60;;;8.20;;
17449;SDS011;8842;51.244;7.102;2022-10-26T08:45:21;8.60;;;8.20;;
17449;SDS011;8842;51.244;7.102;2022-10-26T08:50:33;9.00;;;8.50;;
17449;SDS011;8842;51.244;7.102;2022-10-26T08:55:42;9.13;;;8.63;;
17449;SDS011;8842;51.244;7.102;2022-10-26T09:00:57;9.00;;;8.60;;
17449;SDS011;8842;51.244;7.102;2022-10-26T09:06:04;8.57;;;8.17;;
17449;SDS011;8842;51.244;7.102;2022-10-26T09:11:20;10.07;;;9.33;;
17449;SDS011;8842;51.244;7.102;2022-10-26T09:16:35;9.30;;;8.80;;
17449;SDS011;8842;51.244;7.102;2022-10-26T09:21:45;8.90;;;8.50;;
17449;SDS011;8842;51.244;7.102;2022-10-26T09:26:57;8.80;;;8.37;;
17449;SDS011;8842;51.244;7.102;2022-10-26T09:32:07;8.00;;;7.60;;
17449;SDS011;8842;51.244;7.102;2022-10-26T09:37:15;8.40;;;8.00;;
17449;SDS011;8842;51.244;7.102;2022-10-26T09:42:34;8.80;;;8.30;;
17449;SDS011;8842;51.244;7.102;2022-10-26T09:52:51;9.40;;;8.90;;
17449;SDS011;8842;51.244;7.102;2022-10-26T09:57:57;9.00;;;8.40;;
17449;SDS011;8842;51.244;7.102;2022-10-26T10:03:16;8.83;;;8.33;;
17449;SDS011;8842;51.244;7.102;2022-10-26T10:08:23;8.70;;;8.30;;
17449;SDS011;8842;51.244;7.102;2022-10-26T10:13:35;9.50;;;9.00;;
17449;SDS011;8842;51.244;7.102;2022-10-26T10:18:41;9.90;;;9.40;;
17449;SDS011;8842;51.244;7.102;2022-10-26T10:23:53;9.17;;;8.67;;
17449;SDS011;8842;51.244;7.102;2022-10-26T10:28:59;8.40;;;8.00;;
17449;SDS011;8842;51.244;7.102;2022-10-26T10:34:14;8.27;;;7.87;;
17449;SDS011;8842;51.244;7.102;2022-10-26T10:39:25;8.43;;;8.03;;
17449;SDS011;8842;51.244;7.102;2022-10-26T10:44:33;8.73;;;8.33;;
17449;SDS011;8842;51.244;7.102;2022-10-26T10:49:49;8.53;;;8.13;;
17449;SDS011;8842;51.244;7.102;2022-10-26T10:54:58;8.83;;;8.33;;
17449;SDS011;8842;51.244;7.102;2022-10-26T11:00:13;9.13;;;8.67;;
17449;SDS011;8842;51.244;7.102;2022-10-26T11:05:33;8.40;;;8.00;;
17449;SDS011;8842;51.244;7.102;2022-10-26T11:10:49;8.77;;;8.37;;
17449;SDS011;8842;51.244;7.102;2022-10-26T11:15:57;7.70;;;7.30;;
17449;SDS011;8842;51.244;7.102;2022-10-26T11:21:13;8.33;;;7.93;;
17449;SDS011;8842;51.244;7.102;2022-10-26T11:31:35;13.13;;;8.27;;
17449;SDS011;8842;51.244;7.102;2022-10-26T11:36:42;8.67;;;8.17;;
17449;SDS011;8842;51.244;7.102;2022-10-26T11:42:00;8.90;;;8.50;;
17449;SDS011;8842;51.244;7.102;2022-10-26T11:47:08;8.80;;;8.40;;
17449;SDS011;8842;51.244;7.102;2022-10-26T11:52:23;8.80;;;8.40;;
17449;SDS011;8842;51.244;7.102;2022-10-26T11:57:30;8.70;;;8.30;;
17449;SDS011;8842;51.244;7.102;2022-10-26T12:02:45;8.70;;;8.30;;
17449;SDS011;8842;51.244;7.102;2022-10-26T12:13:05;8.50;;;7.90;;
17449;SDS011;8842;51.244;7.102;2022-10-26T12:23:30;8.30;;;7.90;;
17449;SDS011;8842;51.244;7.102;2022-10-26T12:33:50;8.17;;;7.77;;
17449;SDS011;8842;51.244;7.102;2022-10-26T12:38:55;9.17;;;8.67;;
17449;SDS011;8842;51.244;7.102;2022-10-26T13:01:07;8.80;;;8.40;;
17449;SDS011;8842;51.244;7.102;2022-10-26T13:06:40;8.80;;;8.35;;
17449;SDS011;8842;51.244;7.102;2022-10-26T13:17:03;8.70;;;8.30;;
17449;SDS011;8842;51.244;7.102;2022-10-26T13:22:12;9.18;;;8.73;;
17449;SDS011;8842;51.244;7.102;2022-10-26T13:27:40;8.60;;;8.20;;
17449;SDS011;8842;51.244;7.102;2022-10-26T13:32:48;8.65;;;8.25;;
17449;SDS011;8842;51.244;7.102;2022-10-26T13:37:54;8.87;;;8.47;;
17449;SDS011;8842;51.244;7.102;2022-10-26T13:43:01;9.10;;;8.70;;
17449;SDS011;8842;51.244;7.102;2022-10-26T13:48:17;9.00;;;8.50;;
17449;SDS011;8842;51.244;7.102;2022-10-26T13:53:26;9.23;;;8.73;;
17449;SDS011;8842;51.244;7.102;2022-10-26T13:58:40;8.80;;;8.40;;
17449;SDS011;8842;51.244;7.102;2022-10-26T14:03:53;8.97;;;8.57;;
17449;SDS011;8842;51.244;7.102;2022-10-26T14:08:59;9.00;;;8.60;;
17449;SDS011;8842;51.244;7.102;2022-10-26T14:14:12;8.77;;;8.37;;
17449;SDS011;8842;51.244;7.102;2022-10-26T14:24:33;8.30;;;7.90;;
17449;SDS011;8842;51.244;7.102;2022-10-26T14:29:41;7.10;;;6.80;;
17449;SDS011;8842;51.244;7.102;2022-10-26T14:34:53;7.20;;;6.80;;
17449;SDS011;8842;51.244;7.102;2022-10-26T14:40:09;6.70;;;6.40;;
17449;SDS011;8842;51.244;7.102;2022-10-26T14:45:22;7.70;;;7.30;;
17449;SDS011;8842;51.244;7.102;2022-10-26T14:50:29;8.23;;;7.83;;
17449;SDS011;8842;51.244;7.102;2022-10-26T14:55:42;8.53;;;8.13;;
17449;SDS011;8842;51.244;7.102;2022-10-26T15:01:14;8.73;;;8.33;;
17449;SDS011;8842;51.244;7.102;2022-10-26T15:11:46;7.53;;;7.20;;
17449;SDS011;8842;51.244;7.102;2022-10-26T15:16:51;8.90;;;8.50;;
17449;SDS011;8842;51.244;7.102;2022-10-26T15:22:04;8.77;;;8.37;;
17449;SDS011;8842;51.244;7.102;2022-10-26T15:27:11;8.80;;;8.40;;
17449;SDS011;8842;51.244;7.102;2022-10-26T15:32:34;8.00;;;7.60;;
17449;SDS011;8842;51.244;7.102;2022-10-26T15:37:38;7.90;;;7.50;;
17449;SDS011;8842;51.244;7.102;2022-10-26T15:47:56;7.17;;;6.87;;
17449;SDS011;8842;51.244;7.102;2022-10-26T15:53:07;6.27;;;5.97;;
17449;SDS011;8842;51.244;7.102;2022-10-26T15:58:18;6.37;;;6.07;;
17449;SDS011;8842;51.244;7.102;2022-10-26T16:03:23;7.70;;;7.20;;
17449;SDS011;8842;51.244;7.102;2022-10-26T16:08:36;8.00;;;7.60;;
17449;SDS011;8842;51.244;7.102;2022-10-26T16:18:52;8.10;;;7.70;;
17449;SDS011;8842;51.244;7.102;2022-10-26T16:23:57;8.10;;;7.70;;
17449;SDS011;8842;51.244;7.102;2022-10-26T16:29:09;8.77;;;8.30;;
17449;SDS011;8842;51.244;7.102;2022-10-26T16:34:22;8.20;;;7.80;;
17449;SDS011;8842;51.244;7.102;2022-10-26T16:39:34;7.43;;;7.03;;
17449;SDS011;8842;51.244;7.102;2022-10-26T16:44:38;8.70;;;8.30;;
17449;SDS011;8842;51.244;7.102;2022-10-26T16:49:53;8.63;;;8.23;;
17449;SDS011;8842;51.244;7.102;2022-10-26T16:54:57;7.33;;;6.93;;
17449;SDS011;8842;51.244;7.102;2022-10-26T17:00:09;6.70;;;6.40;;
17449;SDS011;8842;51.244;7.102;2022-10-26T17:05:17;7.90;;;7.50;;
17449;SDS011;8842;51.244;7.102;2022-10-26T17:10:32;7.50;;;7.20;;
17449;SDS011;8842;51.244;7.102;2022-10-26T17:15:36;7.70;;;7.30;;
17449;SDS011;8842;51.244;7.102;2022-10-26T17:20:48;7.70;;;7.30;;
17449;SDS011;8842;51.244;7.102;2022-10-26T17:26:03;8.30;;;7.90;;
17449;SDS011;8842;51.244;7.102;2022-10-26T17:31:10;7.90;;;7.50;;
17449;SDS011;8842;51.244;7.102;2022-10-26T17:36:28;8.00;;;7.60;;
17449;SDS011;8842;51.244;7.102;2022-10-26T17:41:33;8.00;;;7.60;;
17449;SDS011;8842;51.244;7.102;2022-10-26T17:46:37;7.63;;;7.23;;
17449;SDS011;8842;51.244;7.102;2022-10-26T17:51:41;7.97;;;7.57;;
17449;SDS011;8842;51.244;7.102;2022-10-26T17:56:46;8.07;;;7.67;;
17449;SDS011;8842;51.244;7.102;2022-10-26T18:01:58;8.10;;;7.70;;
17449;SDS011;8842;51.244;7.102;2022-10-26T18:07:02;8.37;;;7.97;;
17449;SDS011;8842;51.244;7.102;2022-10-26T18:12:13;7.90;;;7.50;;
17449;SDS011;8842;51.244;7.102;2022-10-26T18:17:18;7.70;;;7.30;;
17449;SDS011;8842;51.244;7.102;2022-10-26T18:22:23;8.67;;;8.03;;
17449;SDS011;8842;51.244;7.102;2022-10-26T18:27:35;8.23;;;7.83;;
17449;SDS011;8842;51.244;7.102;2022-10-26T18:32:39;8.43;;;8.03;;
17449;SDS011;8842;51.244;7.102;2022-10-26T18:37:50;7.90;;;7.50;;
17449;SDS011;8842;51.244;7.102;2022-10-26T18:42:55;8.07;;;7.67;;
17449;SDS011;8842;51.244;7.102;2022-10-26T18:48:09;7.77;;;7.37;;
17449;SDS011;8842;51.244;7.102;2022-10-26T18:53:13;8.17;;;7.77;;
17449;SDS011;8842;51.244;7.102;2022-10-26T18:58:18;8.00;;;7.60;;
17449;SDS011;8842;51.244;7.102;2022-10-26T19:03:30;7.50;;;7.20;;
17449;SDS011;8842;51.244;7.102;2022-10-26T19:08:34;7.67;;;7.27;;
17449;SDS011;8842;51.244;7.102;2022-10-26T19:13:38;7.60;;;7.20;;
17449;SDS011;8842;51.244;7.102;2022-10-26T19:18:50;7.40;;;7.10;;
17449;SDS011;8842;51.244;7.102;2022-10-26T19:23:57;7.47;;;7.07;;
17449;SDS011;8842;51.244;7.102;2022-10-26T19:29:12;8.00;;;7.60;;
17449;SDS011;8842;51.244;7.102;2022-10-26T19:34:17;7.40;;;7.10;;
17449;SDS011;8842;51.244;7.102;2022-10-26T19:39:29;7.70;;;7.30;;
17449;SDS011;8842;51.244;7.102;2022-10-26T19:44:33;8.00;;;7.60;;
17449;SDS011;8842;51.244;7.102;2022-10-26T19:49:38;8.00;;;7.60;;
17449;SDS011;8842;51.244;7.102;2022-10-26T19:54:49;7.40;;;7.10;;
17449;SDS011;8842;51.244;7.102;2022-10-26T19:59:54;7.60;;;7.20;;
17449;SDS011;8842;51.244;7.102;2022-10-26T20:04:58;7.93;;;7.43;;
17449;SDS011;8842;51.244;7.102;2022-10-26T20:10:10;7.60;;;7.20;;
17449;SDS011;8842;51.244;7.102;2022-10-26T20:15:14;7.30;;;7.00;;
17449;SDS011;8842;51.244;7.102;2022-10-26T20:20:26;7.40;;;7.10;;
17449;SDS011;8842;51.244;7.102;2022-10-26T20:25:43;7.20;;;6.90;;
17449;SDS011;8842;51.244;7.102;2022-10-26T20:30:48;7.00;;;6.70;;
17449;SDS011;8842;51.244;7.102;2022-10-26T20:36:00;7.03;;;6.73;;
17449;SDS011;8842;51.244;7.102;2022-10-26T20:41:08;7.80;;;7.40;;
17449;SDS011;8842;51.244;7.102;2022-10-26T20:46:22;7.20;;;6.90;;
17449;SDS011;8842;51.244;7.102;2022-10-26T20:51:35;7.03;;;6.73;;
17449;SDS011;8842;51.244;7.102;2022-10-26T20:56:50;7.00;;;6.70;;
17449;SDS011;8842;51.244;7.102;2022-10-26T21:01:57;7.30;;;6.90;;
17449;SDS011;8842;51.244;7.102;2022-10-26T21:07:01;6.70;;;6.40;;
17449;SDS011;8842;51.244;7.102;2022-10-26T21:12:13;6.80;;;6.50;;
17449;SDS011;8842;51.244;7.102;2022-10-26T21:17:17;6.87;;;6.57;;
17449;SDS011;8842;51.244;7.102;2022-10-26T21:22:28;6.60;;;6.30;;
17449;SDS011;8842;51.244;7.102;2022-10-26T21:32:44;7.00;;;6.70;;
17449;SDS011;8842;51.244;7.102;2022-10-26T21:37:48;6.60;;;6.30;;
17449;SDS011;8842;51.244;7.102;2022-10-26T21:43:00;6.50;;;6.20;;
17449;SDS011;8842;51.244;7.102;2022-10-26T21:48:04;6.80;;;6.50;;
17449;SDS011;8842;51.244;7.102;2022-10-26T21:53:25;6.60;;;6.30;;
17449;SDS011;8842;51.244;7.102;2022-10-26T21:58:29;6.60;;;6.30;;
17449;SDS011;8842;51.244;7.102;2022-10-26T22:03:41;6.30;;;6.00;;
17449;SDS011;8842;51.244;7.102;2022-10-26T22:08:46;6.50;;;6.20;;
17449;SDS011;8842;51.244;7.102;2022-10-26T22:13:50;6.30;;;6.00;;
17449;SDS011;8842;51.244;7.102;2022-10-26T22:19:03;7.10;;;6.70;;
17449;SDS011;8842;51.244;7.102;2022-10-26T22:24:09;6.70;;;6.40;;
17449;SDS011;8842;51.244;7.102;2022-10-26T22:29:20;6.50;;;6.20;;
17449;SDS011;8842;51.244;7.102;2022-10-26T22:34:25;6.20;;;5.90;;
17449;SDS011;8842;51.244;7.102;2022-10-26T22:39:39;6.57;;;6.17;;
17449;SDS011;8842;51.244;7.102;2022-10-26T22:44:43;6.20;;;5.90;;
17449;SDS011;8842;51.244;7.102;2022-10-26T22:49:55;6.20;;;5.90;;
17449;SDS011;8842;51.244;7.102;2022-10-26T22:54:59;6.20;;;5.90;;
17449;SDS011;8842;51.244;7.102;2022-10-26T23:00:12;6.00;;;5.70;;
17449;SDS011;8842;51.244;7.102;2022-10-26T23:05:17;5.90;;;5.67;;
17449;SDS011;8842;51.244;7.102;2022-10-26T23:10:21;6.20;;;5.90;;
17449;SDS011;8842;51.244;7.102;2022-10-26T23:15:26;6.73;;;6.43;;
17449;SDS011;8842;51.244;7.102;2022-10-26T23:20:37;6.40;;;6.10;;
17449;SDS011;8842;51.244;7.102;2022-10-26T23:30:52;6.40;;;6.10;;
17449;SDS011;8842;51.244;7.102;2022-10-26T23:35:57;6.37;;;6.07;;
17449;SDS011;8842;51.244;7.102;2022-10-26T23:41:10;6.33;;;6.03;;
17449;SDS011;8842;51.244;7.102;2022-10-26T23:46:14;6.70;;;6.23;;
17449;SDS011;8842;51.244;7.102;2022-10-26T23:51:26;6.60;;;6.30;;
17449;SDS011;8842;51.244;7.102;2022-10-26T23:56:30;6.50;;;6.20;;
